sensor_id;sensor_type;location;lat;lon;timestamp;P1;P2;P0
79141;PMS5003;68550;-26.480;29.234;2023-11-18T00:03:18;23;23;
79141;PMS5003;68550;-26.480;29.234;2023-11-18T00:05:44;28;27;
79141;PMS5003;68550;-26.480;29.234;2023-11-18T00:08:09;28;28;
79141;PMS5003;68550;-26.480;29.234;2023-11-18T00:13:00;29;27;
79141;PMS5003;68550;-26.480;29.234;2023-11-18T00:15:25;32;31;
79141;PMS5003;68550;-26.480;29.234;2023-11-18T00:17:50;28;28;
79141;PMS5003;68550;-26.480;29.234;2023-11-18T00:20:16;25;25;
79141;PMS5003;68550;-26.480;29.234;2023-11-18T00:22:41;28;27;
79141;PMS5003;68550;-26.480;29.234;2023-11-18T00:25:07;26;25;
79141;PMS5003;68550;-26.480;29.234;2023-11-18T00:27:32;25;25;
79141;PMS5003;68550;-26.480;29.234;2023-11-18T00:34:48;22;21;
79141;PMS5003;68550;-26.480;29.234;2023-11-18T00:37:26;24;23;
79141;PMS5003;68550;-26.480;29.234;2023-11-18T00:39:38;18;18;
79141;PMS5003;68550;-26.480;29.234;2023-11-18T00:42:04;22;20;
79141;PMS5003;68550;-26.480;29.234;2023-11-18T00:49:19;21;19;
79141;PMS5003;68550;-26.480;29.234;2023-11-18T00:51:47;19;19;
79141;PMS5003;68550;-26.480;29.234;2023-11-18T00:54:09;16;16;
79141;PMS5003;68550;-26.480;29.234;2023-11-18T00:56:36;19;19;
79141;PMS5003;68550;-26.480;29.234;2023-11-18T00:59:02;17;17;
79141;PMS5003;68550;-26.480;29.234;2023-11-18T01:01:25;19;19;
79141;PMS5003;68550;-26.480;29.234;2023-11-18T01:08:13;18;18;
79141;PMS5003;68550;-26.480;29.234;2023-11-18T01:10:39;15;15;
79141;PMS5003;68550;-26.480;29.234;2023-11-18T01:13:06;14;14;
79141;PMS5003;68550;-26.480;29.234;2023-11-18T01:15:29;15;15;
79141;PMS5003;68550;-26.480;29.234;2023-11-18T01:20:20;16;16;
79141;PMS5003;68550;-26.480;29.234;2023-11-18T01:22:45;14;14;
79141;PMS5003;68550;-26.480;29.234;2023-11-18T01:25:10;16;16;
79141;PMS5003;68550;-26.480;29.234;2023-11-18T01:27:39;15;14;
79141;PMS5003;68550;-26.480;29.234;2023-11-18T01:30:01;18;17;
79141;PMS5003;68550;-26.480;29.234;2023-11-18T01:34:52;16;15;
79141;PMS5003;68550;-26.480;29.234;2023-11-18T01:37:22;15;15;
79141;PMS5003;68550;-26.480;29.234;2023-11-18T01:39:42;14;14;
79141;PMS5003;68550;-26.480;29.234;2023-11-18T01:49:23;11;11;
79141;PMS5003;68550;-26.480;29.234;2023-11-18T01:56:45;13;13;
79141;PMS5003;68550;-26.480;29.234;2023-11-18T02:08:47;10;10;
79141;PMS5003;68550;-26.480;29.234;2023-11-18T02:11:16;11;11;
79141;PMS5003;68550;-26.480;29.234;2023-11-18T02:25:46;14;13;
79141;PMS5003;68550;-26.480;29.234;2023-11-18T02:28:15;10;10;
79141;PMS5003;68550;-26.480;29.234;2023-11-18T02:40:18;11;11;
79141;PMS5003;68550;-26.480;29.234;2023-11-18T02:45:08;12;12;
79141;PMS5003;68550;-26.480;29.234;2023-11-18T02:47:33;10;9;
79141;PMS5003;68550;-26.480;29.234;2023-11-18T02:52:24;11;10;
79141;PMS5003;68550;-26.480;29.234;2023-11-18T02:54:49;13;13;
79141;PMS5003;68550;-26.480;29.234;2023-11-18T02:57:14;11;11;
79141;PMS5003;68550;-26.480;29.234;2023-11-18T02:59:40;9;9;
79141;PMS5003;68550;-26.480;29.234;2023-11-18T03:14:36;7;7;
79141;PMS5003;68550;-26.480;29.234;2023-11-18T03:17:02;10;10;
79141;PMS5003;68550;-26.480;29.234;2023-11-18T03:21:50;10;10;
79141;PMS5003;68550;-26.480;29.234;2023-11-18T03:24:13;11;11;
79141;PMS5003;68550;-26.480;29.234;2023-11-18T03:26:39;9;9;
79141;PMS5003;68550;-26.480;29.234;2023-11-18T03:29:04;10;10;
79141;PMS5003;68550;-26.480;29.234;2023-11-18T03:31:29;9;9;
79141;PMS5003;68550;-26.480;29.234;2023-11-18T03:33:54;9;8;
79141;PMS5003;68550;-26.480;29.234;2023-11-18T03:38:45;9;9;
79141;PMS5003;68550;-26.480;29.234;2023-11-18T03:43:37;7;7;
79141;PMS5003;68550;-26.480;29.234;2023-11-18T03:46:01;10;10;
79141;PMS5003;68550;-26.480;29.234;2023-11-18T03:48:28;10;10;
79141;PMS5003;68550;-26.480;29.234;2023-11-18T03:50:52;9;9;
79141;PMS5003;68550;-26.480;29.234;2023-11-18T03:55:43;9;8;
79141;PMS5003;68550;-26.480;29.234;2023-11-18T04:00:41;10;9;
79141;PMS5003;68550;-26.480;29.234;2023-11-18T04:02:59;8;8;
79141;PMS5003;68550;-26.480;29.234;2023-11-18T04:05:26;11;10;
79141;PMS5003;68550;-26.480;29.234;2023-11-18T04:07:49;9;9;
79141;PMS5003;68550;-26.480;29.234;2023-11-18T04:10:14;13;13;
79141;PMS5003;68550;-26.480;29.234;2023-11-18T04:12:40;9;9;
79141;PMS5003;68550;-26.480;29.234;2023-11-18T04:17:35;9;9;
79141;PMS5003;68550;-26.480;29.234;2023-11-18T04:34:35;7;6;
79141;PMS5003;68550;-26.480;29.234;2023-11-18T04:39:19;7;7;
79141;PMS5003;68550;-26.480;29.234;2023-11-18T04:56:18;5;5;
79141;PMS5003;68550;-26.480;29.234;2023-11-18T05:20:32;6;6;
79141;PMS5003;68550;-26.480;29.234;2023-11-18T05:22:58;7;7;
79141;PMS5003;68550;-26.480;29.234;2023-11-18T05:25:24;7;7;
79141;PMS5003;68550;-26.480;29.234;2023-11-18T05:27:49;7;7;
79141;PMS5003;68550;-26.480;29.234;2023-11-18T05:30:15;5;5;
79141;PMS5003;68550;-26.480;29.234;2023-11-18T05:39:56;6;6;
79141;PMS5003;68550;-26.480;29.234;2023-11-18T05:54:28;5;5;
79141;PMS5003;68550;-26.480;29.234;2023-11-18T06:21:07;6;6;
79141;PMS5003;68550;-26.480;29.234;2023-11-18T06:30:49;6;6;
79141;PMS5003;68550;-26.480;29.234;2023-11-18T06:40:30;5;5;
79141;PMS5003;68550;-26.480;29.234;2023-11-18T06:42:55;8;8;
79141;PMS5003;68550;-26.480;29.234;2023-11-18T06:45:22;4;4;
79141;PMS5003;68550;-26.480;29.234;2023-11-18T06:47:46;7;7;
79141;PMS5003;68550;-26.480;29.234;2023-11-18T07:33:57;7;7;
79141;PMS5003;68550;-26.480;29.234;2023-11-18T07:36:15;7;7;
79141;PMS5003;68550;-26.480;29.234;2023-11-18T07:38:40;7;7;
79141;PMS5003;68550;-26.480;29.234;2023-11-18T07:41:05;6;6;
79141;PMS5003;68550;-26.480;29.234;2023-11-18T07:53:12;6;6;
79141;PMS5003;68550;-26.480;29.234;2023-11-18T07:55:37;5;5;
79141;PMS5003;68550;-26.480;29.234;2023-11-18T07:58:03;6;5;
79141;PMS5003;68550;-26.480;29.234;2023-11-18T08:02:54;6;6;
79141;PMS5003;68550;-26.480;29.234;2023-11-18T08:05:19;5;4;
79141;PMS5003;68550;-26.480;29.234;2023-11-18T08:07:44;6;6;
79141;PMS5003;68550;-26.480;29.234;2023-11-18T08:10:10;6;6;
79141;PMS5003;68550;-26.480;29.234;2023-11-18T08:12:35;4;4;
79141;PMS5003;68550;-26.480;29.234;2023-11-18T08:15:00;5;5;
79141;PMS5003;68550;-26.480;29.234;2023-11-18T08:17:26;5;5;
79141;PMS5003;68550;-26.480;29.234;2023-11-18T08:19:51;5;5;
79141;PMS5003;68550;-26.480;29.234;2023-11-18T08:22:17;5;5;
79141;PMS5003;68550;-26.480;29.234;2023-11-18T08:24:42;6;6;
79141;PMS5003;68550;-26.480;29.234;2023-11-18T08:27:08;5;4;
79141;PMS5003;68550;-26.480;29.234;2023-11-18T08:29:33;6;6;
79141;PMS5003;68550;-26.480;29.234;2023-11-18T08:31:58;5;5;
79141;PMS5003;68550;-26.480;29.234;2023-11-18T08:34:24;4;4;
79141;PMS5003;68550;-26.480;29.234;2023-11-18T08:36:49;5;5;
79141;PMS5003;68550;-26.480;29.234;2023-11-18T08:39:14;6;5;
79141;PMS5003;68550;-26.480;29.234;2023-11-18T08:41:40;5;5;
79141;PMS5003;68550;-26.480;29.234;2023-11-18T08:44:05;5;5;
79141;PMS5003;68550;-26.480;29.234;2023-11-18T08:46:30;5;5;
79141;PMS5003;68550;-26.480;29.234;2023-11-18T08:48:56;5;5;
79141;PMS5003;68550;-26.480;29.234;2023-11-18T08:51:21;3;3;
79141;PMS5003;68550;-26.480;29.234;2023-11-18T08:53:47;3;3;
79141;PMS5003;68550;-26.480;29.234;2023-11-18T08:56:12;4;3;
79141;PMS5003;68550;-26.480;29.234;2023-11-18T08:58:37;4;4;
79141;PMS5003;68550;-26.480;29.234;2023-11-18T09:01:02;4;4;
79141;PMS5003;68550;-26.480;29.234;2023-11-18T09:03:29;4;3;
79141;PMS5003;68550;-26.480;29.234;2023-11-18T09:05:53;3;2;
79141;PMS5003;68550;-26.480;29.234;2023-11-18T09:08:18;3;3;
79141;PMS5003;68550;-26.480;29.234;2023-11-18T09:10:44;2;2;
79141;PMS5003;68550;-26.480;29.234;2023-11-18T09:13:09;2;2;
79141;PMS5003;68550;-26.480;29.234;2023-11-18T09:15:37;3;3;
79141;PMS5003;68550;-26.480;29.234;2023-11-18T09:18:01;3;3;
79141;PMS5003;68550;-26.480;29.234;2023-11-18T09:20:25;4;4;
79141;PMS5003;68550;-26.480;29.234;2023-11-18T09:22:51;3;3;
79141;PMS5003;68550;-26.480;29.234;2023-11-18T09:27:42;2;2;
79141;PMS5003;68550;-26.480;29.234;2023-11-18T09:30:07;2;2;
79141;PMS5003;68550;-26.480;29.234;2023-11-18T09:32:32;2;1;
79141;PMS5003;68550;-26.480;29.234;2023-11-18T09:34:59;3;3;
79141;PMS5003;68550;-26.480;29.234;2023-11-18T09:37:23;2;2;
79141;PMS5003;68550;-26.480;29.234;2023-11-18T09:39:48;2;2;
79141;PMS5003;68550;-26.480;29.234;2023-11-18T09:42:16;2;2;
79141;PMS5003;68550;-26.480;29.234;2023-11-18T09:44:39;4;4;
79141;PMS5003;68550;-26.480;29.234;2023-11-18T09:47:07;1;1;
79141;PMS5003;68550;-26.480;29.234;2023-11-18T09:49:31;2;2;
79141;PMS5003;68550;-26.480;29.234;2023-11-18T09:51:56;1;1;
79141;PMS5003;68550;-26.480;29.234;2023-11-18T09:54:22;2;2;
79141;PMS5003;68550;-26.480;29.234;2023-11-18T09:56:49;1;1;
79141;PMS5003;68550;-26.480;29.234;2023-11-18T09:59:11;2;1;
79141;PMS5003;68550;-26.480;29.234;2023-11-18T10:01:38;1;1;
79141;PMS5003;68550;-26.480;29.234;2023-11-18T10:04:05;2;2;
79141;PMS5003;68550;-26.480;29.234;2023-11-18T10:06:27;4;2;
79141;PMS5003;68550;-26.480;29.234;2023-11-18T10:08:54;2;2;
79141;PMS5003;68550;-26.480;29.234;2023-11-18T10:11:17;2;2;
79141;PMS5003;68550;-26.480;29.234;2023-11-18T10:13:43;2;1;
79141;PMS5003;68550;-26.480;29.234;2023-11-18T10:16:08;2;2;
79141;PMS5003;68550;-26.480;29.234;2023-11-18T10:18:36;2;1;
79141;PMS5003;68550;-26.480;29.234;2023-11-18T10:20:59;1;0;
79141;PMS5003;68550;-26.480;29.234;2023-11-18T10:23:24;1;1;
79141;PMS5003;68550;-26.480;29.234;2023-11-18T10:25:50;4;2;
79141;PMS5003;68550;-26.480;29.234;2023-11-18T10:28:22;1;1;
79141;PMS5003;68550;-26.480;29.234;2023-11-18T10:30:44;3;2;
79141;PMS5003;68550;-26.480;29.234;2023-11-18T10:33:06;4;2;
79141;PMS5003;68550;-26.480;29.234;2023-11-18T10:35:31;6;5;
79141;PMS5003;68550;-26.480;29.234;2023-11-18T10:37:56;4;3;
79141;PMS5003;68550;-26.480;29.234;2023-11-18T10:40:22;2;2;
79141;PMS5003;68550;-26.480;29.234;2023-11-18T10:42:47;2;2;
79141;PMS5003;68550;-26.480;29.234;2023-11-18T10:45:12;4;3;
79141;PMS5003;68550;-26.480;29.234;2023-11-18T10:47:39;2;1;
79141;PMS5003;68550;-26.480;29.234;2023-11-18T10:50:03;2;2;
79141;PMS5003;68550;-26.480;29.234;2023-11-18T10:52:28;1;1;
79141;PMS5003;68550;-26.480;29.234;2023-11-18T10:54:53;1;1;
79141;PMS5003;68550;-26.480;29.234;2023-11-18T10:57:19;2;2;
79141;PMS5003;68550;-26.480;29.234;2023-11-18T11:04:42;1;1;
79141;PMS5003;68550;-26.480;29.234;2023-11-18T11:07:00;0;0;
79141;PMS5003;68550;-26.480;29.234;2023-11-18T11:09:25;2;2;
79141;PMS5003;68550;-26.480;29.234;2023-11-18T11:11:53;1;1;
79141;PMS5003;68550;-26.480;29.234;2023-11-18T11:14:16;1;1;
79141;PMS5003;68550;-26.480;29.234;2023-11-18T11:16:42;2;2;
79141;PMS5003;68550;-26.480;29.234;2023-11-18T11:19:07;2;2;
79141;PMS5003;68550;-26.480;29.234;2023-11-18T11:21:32;1;1;
79141;PMS5003;68550;-26.480;29.234;2023-11-18T11:24:00;3;2;
79141;PMS5003;68550;-26.480;29.234;2023-11-18T11:26:26;2;2;
79141;PMS5003;68550;-26.480;29.234;2023-11-18T11:28:50;1;1;
79141;PMS5003;68550;-26.480;29.234;2023-11-18T11:31:16;1;0;
79141;PMS5003;68550;-26.480;29.234;2023-11-18T11:33:40;1;1;
79141;PMS5003;68550;-26.480;29.234;2023-11-18T11:36:06;2;2;
79141;PMS5003;68550;-26.480;29.234;2023-11-18T11:38:31;3;2;
79141;PMS5003;68550;-26.480;29.234;2023-11-18T11:40:55;1;1;
79141;PMS5003;68550;-26.480;29.234;2023-11-18T11:43:21;2;2;
79141;PMS5003;68550;-26.480;29.234;2023-11-18T11:45:46;3;3;
79141;PMS5003;68550;-26.480;29.234;2023-11-18T11:48:11;1;1;
79141;PMS5003;68550;-26.480;29.234;2023-11-18T11:50:44;2;2;
79141;PMS5003;68550;-26.480;29.234;2023-11-18T11:53:03;2;2;
79141;PMS5003;68550;-26.480;29.234;2023-11-18T11:55:29;0;0;
79141;PMS5003;68550;-26.480;29.234;2023-11-18T11:57:53;2;2;
79141;PMS5003;68550;-26.480;29.234;2023-11-18T12:00:18;1;1;
79141;PMS5003;68550;-26.480;29.234;2023-11-18T12:02:49;2;2;
79141;PMS5003;68550;-26.480;29.234;2023-11-18T12:05:09;2;2;
79141;PMS5003;68550;-26.480;29.234;2023-11-18T12:07:34;3;3;
79141;PMS5003;68550;-26.480;29.234;2023-11-18T12:10:00;3;3;
79141;PMS5003;68550;-26.480;29.234;2023-11-18T12:12:25;2;1;
79141;PMS5003;68550;-26.480;29.234;2023-11-18T12:14:52;2;1;
79141;PMS5003;68550;-26.480;29.234;2023-11-18T12:17:16;3;3;
79141;PMS5003;68550;-26.480;29.234;2023-11-18T12:19:41;2;1;
79141;PMS5003;68550;-26.480;29.234;2023-11-18T12:22:06;2;2;
79141;PMS5003;68550;-26.480;29.234;2023-11-18T12:24:32;3;2;
79141;PMS5003;68550;-26.480;29.234;2023-11-18T12:26:57;2;2;
79141;PMS5003;68550;-26.480;29.234;2023-11-18T12:29:31;3;3;
79141;PMS5003;68550;-26.480;29.234;2023-11-18T12:31:48;2;2;
79141;PMS5003;68550;-26.480;29.234;2023-11-18T12:34:13;2;2;
79141;PMS5003;68550;-26.480;29.234;2023-11-18T12:41:34;2;2;
79141;PMS5003;68550;-26.480;29.234;2023-11-18T12:43:59;2;2;
79141;PMS5003;68550;-26.480;29.234;2023-11-18T12:48:45;2;2;
79141;PMS5003;68550;-26.480;29.234;2023-11-18T12:51:11;3;2;
79141;PMS5003;68550;-26.480;29.234;2023-11-18T12:53:36;2;2;
79141;PMS5003;68550;-26.480;29.234;2023-11-18T12:56:02;2;2;
79141;PMS5003;68550;-26.480;29.234;2023-11-18T12:58:27;4;3;
79141;PMS5003;68550;-26.480;29.234;2023-11-18T13:00:52;3;2;
79141;PMS5003;68550;-26.480;29.234;2023-11-18T13:03:18;1;1;
79141;PMS5003;68550;-26.480;29.234;2023-11-18T13:05:44;2;2;
79141;PMS5003;68550;-26.480;29.234;2023-11-18T13:08:08;1;1;
79141;PMS5003;68550;-26.480;29.234;2023-11-18T13:10:34;3;2;
79141;PMS5003;68550;-26.480;29.234;2023-11-18T13:12:59;1;1;
79141;PMS5003;68550;-26.480;29.234;2023-11-18T13:15:24;4;3;
79141;PMS5003;68550;-26.480;29.234;2023-11-18T13:17:59;2;2;
79141;PMS5003;68550;-26.480;29.234;2023-11-18T13:20:16;2;2;
79141;PMS5003;68550;-26.480;29.234;2023-11-18T13:22:42;3;3;
79141;PMS5003;68550;-26.480;29.234;2023-11-18T13:25:06;1;1;
79141;PMS5003;68550;-26.480;29.234;2023-11-18T13:27:31;2;2;
79141;PMS5003;68550;-26.480;29.234;2023-11-18T13:29:57;1;1;
79141;PMS5003;68550;-26.480;29.234;2023-11-18T13:32:24;2;1;
79141;PMS5003;68550;-26.480;29.234;2023-11-18T13:34:47;4;2;
79141;PMS5003;68550;-26.480;29.234;2023-11-18T13:37:12;1;1;
79141;PMS5003;68550;-26.480;29.234;2023-11-18T13:39:38;2;1;
79141;PMS5003;68550;-26.480;29.234;2023-11-18T13:44:32;1;1;
79141;PMS5003;68550;-26.480;29.234;2023-11-18T13:46:54;3;3;
79141;PMS5003;68550;-26.480;29.234;2023-11-18T13:49:20;2;2;
79141;PMS5003;68550;-26.480;29.234;2023-11-18T13:51:45;2;1;
79141;PMS5003;68550;-26.480;29.234;2023-11-18T13:54:10;2;1;
79141;PMS5003;68550;-26.480;29.234;2023-11-18T13:56:35;1;1;
79141;PMS5003;68550;-26.480;29.234;2023-11-18T13:59:00;0;0;
79141;PMS5003;68550;-26.480;29.234;2023-11-18T14:01:26;3;3;
79141;PMS5003;68550;-26.480;29.234;2023-11-18T14:03:51;2;2;
79141;PMS5003;68550;-26.480;29.234;2023-11-18T14:06:17;1;1;
79141;PMS5003;68550;-26.480;29.234;2023-11-18T14:08:44;1;1;
79141;PMS5003;68550;-26.480;29.234;2023-11-18T14:11:07;1;1;
79141;PMS5003;68550;-26.480;29.234;2023-11-18T14:13:33;2;2;
79141;PMS5003;68550;-26.480;29.234;2023-11-18T14:15:58;2;2;
79141;PMS5003;68550;-26.480;29.234;2023-11-18T14:18:23;2;2;
79141;PMS5003;68550;-26.480;29.234;2023-11-18T14:20:49;3;2;
79141;PMS5003;68550;-26.480;29.234;2023-11-18T14:23:14;1;1;
79141;PMS5003;68550;-26.480;29.234;2023-11-18T14:25:39;2;2;
79141;PMS5003;68550;-26.480;29.234;2023-11-18T14:28:05;2;2;
79141;PMS5003;68550;-26.480;29.234;2023-11-18T14:30:32;2;2;
79141;PMS5003;68550;-26.480;29.234;2023-11-18T14:32:55;3;2;
79141;PMS5003;68550;-26.480;29.234;2023-11-18T14:35:21;1;1;
79141;PMS5003;68550;-26.480;29.234;2023-11-18T14:37:46;2;2;
79141;PMS5003;68550;-26.480;29.234;2023-11-18T14:40:12;3;3;
79141;PMS5003;68550;-26.480;29.234;2023-11-18T14:42:37;2;1;
79141;PMS5003;68550;-26.480;29.234;2023-11-18T14:45:02;1;1;
79141;PMS5003;68550;-26.480;29.234;2023-11-18T14:47:28;1;1;
79141;PMS5003;68550;-26.480;29.234;2023-11-18T14:49:55;2;2;
79141;PMS5003;68550;-26.480;29.234;2023-11-18T14:52:18;2;2;
79141;PMS5003;68550;-26.480;29.234;2023-11-18T14:54:44;2;2;
79141;PMS5003;68550;-26.480;29.234;2023-11-18T14:57:09;2;2;
79141;PMS5003;68550;-26.480;29.234;2023-11-18T14:59:34;1;1;
79141;PMS5003;68550;-26.480;29.234;2023-11-18T15:02:02;3;2;
79141;PMS5003;68550;-26.480;29.234;2023-11-18T15:04:25;3;3;
79141;PMS5003;68550;-26.480;29.234;2023-11-18T15:06:50;2;2;
79141;PMS5003;68550;-26.480;29.234;2023-11-18T15:09:16;2;2;
79141;PMS5003;68550;-26.480;29.234;2023-11-18T15:11:41;3;3;
79141;PMS5003;68550;-26.480;29.234;2023-11-18T15:14:07;3;2;
79141;PMS5003;68550;-26.480;29.234;2023-11-18T15:16:32;2;2;
79141;PMS5003;68550;-26.480;29.234;2023-11-18T15:18:57;3;3;
79141;PMS5003;68550;-26.480;29.234;2023-11-18T15:21:23;2;2;
79141;PMS5003;68550;-26.480;29.234;2023-11-18T15:23:48;3;3;
79141;PMS5003;68550;-26.480;29.234;2023-11-18T15:26:13;3;3;
79141;PMS5003;68550;-26.480;29.234;2023-11-18T15:28:39;3;2;
79141;PMS5003;68550;-26.480;29.234;2023-11-18T15:31:04;4;4;
79141;PMS5003;68550;-26.480;29.234;2023-11-18T15:33:29;4;4;
79141;PMS5003;68550;-26.480;29.234;2023-11-18T15:35:55;3;3;
79141;PMS5003;68550;-26.480;29.234;2023-11-18T15:38:20;1;1;
79141;PMS5003;68550;-26.480;29.234;2023-11-18T15:40:47;2;2;
79141;PMS5003;68550;-26.480;29.234;2023-11-18T15:43:11;4;4;
79141;PMS5003;68550;-26.480;29.234;2023-11-18T15:45:36;2;2;
79141;PMS5003;68550;-26.480;29.234;2023-11-18T15:48:02;4;4;
79141;PMS5003;68550;-26.480;29.234;2023-11-18T15:50:27;3;3;
79141;PMS5003;68550;-26.480;29.234;2023-11-18T15:52:52;5;4;
79141;PMS5003;68550;-26.480;29.234;2023-11-18T15:55:18;4;3;
79141;PMS5003;68550;-26.480;29.234;2023-11-18T15:57:44;2;2;
79141;PMS5003;68550;-26.480;29.234;2023-11-18T16:00:09;3;3;
79141;PMS5003;68550;-26.480;29.234;2023-11-18T16:02:34;2;2;
79141;PMS5003;68550;-26.480;29.234;2023-11-18T16:04:59;3;2;
79141;PMS5003;68550;-26.480;29.234;2023-11-18T16:07:24;4;4;
79141;PMS5003;68550;-26.480;29.234;2023-11-18T16:09:50;2;2;
79141;PMS5003;68550;-26.480;29.234;2023-11-18T16:12:15;4;4;
79141;PMS5003;68550;-26.480;29.234;2023-11-18T16:14:41;3;2;
79141;PMS5003;68550;-26.480;29.234;2023-11-18T16:17:06;4;4;
79141;PMS5003;68550;-26.480;29.234;2023-11-18T16:19:31;2;1;
79141;PMS5003;68550;-26.480;29.234;2023-11-18T16:21:57;3;3;
79141;PMS5003;68550;-26.480;29.234;2023-11-18T16:24:22;3;3;
79141;PMS5003;68550;-26.480;29.234;2023-11-18T16:26:48;3;3;
79141;PMS5003;68550;-26.480;29.234;2023-11-18T16:29:13;2;2;
79141;PMS5003;68550;-26.480;29.234;2023-11-18T16:31:38;2;2;
79141;PMS5003;68550;-26.480;29.234;2023-11-18T16:34:03;3;3;
79141;PMS5003;68550;-26.480;29.234;2023-11-18T16:36:29;2;2;
79141;PMS5003;68550;-26.480;29.234;2023-11-18T16:38:56;7;7;
79141;PMS5003;68550;-26.480;29.234;2023-11-18T16:41:19;14;14;
79141;PMS5003;68550;-26.480;29.234;2023-11-18T16:43:45;22;20;
79141;PMS5003;68550;-26.480;29.234;2023-11-18T16:46:11;13;13;
79141;PMS5003;68550;-26.480;29.234;2023-11-18T16:48:36;16;15;
79141;PMS5003;68550;-26.480;29.234;2023-11-18T16:51:02;10;10;
79141;PMS5003;68550;-26.480;29.234;2023-11-18T16:53:26;20;19;
79141;PMS5003;68550;-26.480;29.234;2023-11-18T16:55:52;18;18;
79141;PMS5003;68550;-26.480;29.234;2023-11-18T16:58:17;16;15;
79141;PMS5003;68550;-26.480;29.234;2023-11-18T17:00:42;14;13;
79141;PMS5003;68550;-26.480;29.234;2023-11-18T17:03:08;14;14;
79141;PMS5003;68550;-26.480;29.234;2023-11-18T17:05:33;14;14;
79141;PMS5003;68550;-26.480;29.234;2023-11-18T17:07:59;17;17;
79141;PMS5003;68550;-26.480;29.234;2023-11-18T17:10:24;19;19;
79141;PMS5003;68550;-26.480;29.234;2023-11-18T17:12:49;20;20;
79141;PMS5003;68550;-26.480;29.234;2023-11-18T17:15:16;19;17;
79141;PMS5003;68550;-26.480;29.234;2023-11-18T17:17:40;20;20;
79141;PMS5003;68550;-26.480;29.234;2023-11-18T17:20:06;17;17;
79141;PMS5003;68550;-26.480;29.234;2023-11-18T17:22:31;15;14;
79141;PMS5003;68550;-26.480;29.234;2023-11-18T17:24:56;17;16;
79141;PMS5003;68550;-26.480;29.234;2023-11-18T17:27:24;11;11;
79141;PMS5003;68550;-26.480;29.234;2023-11-18T17:29:47;9;9;
79141;PMS5003;68550;-26.480;29.234;2023-11-18T17:32:14;9;9;
79141;PMS5003;68550;-26.480;29.234;2023-11-18T17:34:37;10;9;
79141;PMS5003;68550;-26.480;29.234;2023-11-18T17:37:03;9;9;
79141;PMS5003;68550;-26.480;29.234;2023-11-18T17:39:28;11;11;
79141;PMS5003;68550;-26.480;29.234;2023-11-18T17:41:54;10;9;
79141;PMS5003;68550;-26.480;29.234;2023-11-18T17:44:19;10;10;
79141;PMS5003;68550;-26.480;29.234;2023-11-18T17:46:44;9;7;
79141;PMS5003;68550;-26.480;29.234;2023-11-18T17:49:09;7;7;
79141;PMS5003;68550;-26.480;29.234;2023-11-18T17:51:35;7;7;
79141;PMS5003;68550;-26.480;29.234;2023-11-18T17:54:00;8;8;
79141;PMS5003;68550;-26.480;29.234;2023-11-18T17:56:29;10;7;
79141;PMS5003;68550;-26.480;29.234;2023-11-18T17:58:51;8;7;
79141;PMS5003;68550;-26.480;29.234;2023-11-18T18:01:16;7;6;
79141;PMS5003;68550;-26.480;29.234;2023-11-18T18:03:42;8;8;
79141;PMS5003;68550;-26.480;29.234;2023-11-18T18:06:08;8;8;
79141;PMS5003;68550;-26.480;29.234;2023-11-18T18:08:33;8;8;
79141;PMS5003;68550;-26.480;29.234;2023-11-18T18:10:58;9;9;
79141;PMS5003;68550;-26.480;29.234;2023-11-18T18:13:23;11;11;
79141;PMS5003;68550;-26.480;29.234;2023-11-18T18:15:48;10;10;
79141;PMS5003;68550;-26.480;29.234;2023-11-18T18:18:14;9;9;
79141;PMS5003;68550;-26.480;29.234;2023-11-18T18:20:39;10;9;
79141;PMS5003;68550;-26.480;29.234;2023-11-18T18:23:04;8;8;
79141;PMS5003;68550;-26.480;29.234;2023-11-18T18:25:30;10;10;
79141;PMS5003;68550;-26.480;29.234;2023-11-18T18:27:55;9;9;
79141;PMS5003;68550;-26.480;29.234;2023-11-18T18:30:24;8;8;
79141;PMS5003;68550;-26.480;29.234;2023-11-18T18:32:46;9;9;
79141;PMS5003;68550;-26.480;29.234;2023-11-18T18:35:11;11;9;
79141;PMS5003;68550;-26.480;29.234;2023-11-18T18:37:37;10;10;
79141;PMS5003;68550;-26.480;29.234;2023-11-18T18:40:02;12;12;
79141;PMS5003;68550;-26.480;29.234;2023-11-18T18:42:27;11;11;
79141;PMS5003;68550;-26.480;29.234;2023-11-18T18:44:53;8;8;
79141;PMS5003;68550;-26.480;29.234;2023-11-18T18:47:18;10;10;
79141;PMS5003;68550;-26.480;29.234;2023-11-18T18:49:43;12;10;
79141;PMS5003;68550;-26.480;29.234;2023-11-18T18:52:09;12;11;
79141;PMS5003;68550;-26.480;29.234;2023-11-18T18:54:35;12;11;
79141;PMS5003;68550;-26.480;29.234;2023-11-18T18:57:00;10;10;
79141;PMS5003;68550;-26.480;29.234;2023-11-18T18:59:25;14;12;
79141;PMS5003;68550;-26.480;29.234;2023-11-18T19:01:50;9;9;
79141;PMS5003;68550;-26.480;29.234;2023-11-18T19:04:16;11;11;
79141;PMS5003;68550;-26.480;29.234;2023-11-18T19:06:43;13;12;
79141;PMS5003;68550;-26.480;29.234;2023-11-18T19:09:06;15;13;
79141;PMS5003;68550;-26.480;29.234;2023-11-18T19:11:32;8;8;
79141;PMS5003;68550;-26.480;29.234;2023-11-18T19:13:57;13;13;
79141;PMS5003;68550;-26.480;29.234;2023-11-18T19:16:23;12;11;
79141;PMS5003;68550;-26.480;29.234;2023-11-18T19:18:48;12;12;
79141;PMS5003;68550;-26.480;29.234;2023-11-18T19:21:13;10;10;
79141;PMS5003;68550;-26.480;29.234;2023-11-18T19:23:41;12;12;
79141;PMS5003;68550;-26.480;29.234;2023-11-18T19:26:05;11;11;
79141;PMS5003;68550;-26.480;29.234;2023-11-18T19:28:32;15;14;
79141;PMS5003;68550;-26.480;29.234;2023-11-18T19:30:56;14;13;
79141;PMS5003;68550;-26.480;29.234;2023-11-18T19:33:21;13;12;
79141;PMS5003;68550;-26.480;29.234;2023-11-18T19:35:48;11;11;
79141;PMS5003;68550;-26.480;29.234;2023-11-18T19:38:11;12;12;
79141;PMS5003;68550;-26.480;29.234;2023-11-18T19:40:36;15;15;
79141;PMS5003;68550;-26.480;29.234;2023-11-18T19:43:01;12;11;
79141;PMS5003;68550;-26.480;29.234;2023-11-18T19:45:26;12;12;
79141;PMS5003;68550;-26.480;29.234;2023-11-18T19:47:52;12;12;
79141;PMS5003;68550;-26.480;29.234;2023-11-18T19:50:17;12;11;
79141;PMS5003;68550;-26.480;29.234;2023-11-18T19:52:43;10;10;
79141;PMS5003;68550;-26.480;29.234;2023-11-18T19:55:08;14;14;
79141;PMS5003;68550;-26.480;29.234;2023-11-18T19:57:35;14;14;
79141;PMS5003;68550;-26.480;29.234;2023-11-18T19:59:59;14;14;
79141;PMS5003;68550;-26.480;29.234;2023-11-18T20:02:25;16;15;
79141;PMS5003;68550;-26.480;29.234;2023-11-18T20:04:50;17;17;
79141;PMS5003;68550;-26.480;29.234;2023-11-18T20:07:15;18;16;
79141;PMS5003;68550;-26.480;29.234;2023-11-18T20:09:41;23;23;
79141;PMS5003;68550;-26.480;29.234;2023-11-18T20:12:06;23;23;
79141;PMS5003;68550;-26.480;29.234;2023-11-18T20:14:32;26;26;
79141;PMS5003;68550;-26.480;29.234;2023-11-18T20:16:57;21;21;
79141;PMS5003;68550;-26.480;29.234;2023-11-18T20:19:23;22;22;
79141;PMS5003;68550;-26.480;29.234;2023-11-18T20:21:52;23;23;
79141;PMS5003;68550;-26.480;29.234;2023-11-18T20:24:14;24;24;
79141;PMS5003;68550;-26.480;29.234;2023-11-18T20:26:39;24;24;
79141;PMS5003;68550;-26.480;29.234;2023-11-18T20:29:05;22;21;
79141;PMS5003;68550;-26.480;29.234;2023-11-18T20:31:30;22;21;
79141;PMS5003;68550;-26.480;29.234;2023-11-18T20:33:55;21;19;
79141;PMS5003;68550;-26.480;29.234;2023-11-18T20:36:20;17;16;